Time;durP1;ratioP1;P1;durP2;ratioP2;P2;SDS_P1;SDS_P2;PMS_P1;PMS_P2;Temp;Humidity;BMP_temperature;BMP_pressure;BME280_temperature;BME280_humidity;BME280_pressure;Samples;Min_cycle;Max_cycle;Signal;HPM_P1;HPM_P2
2023/09/07 00:00:37;;;;;;;11.60;3.42;;;;;;;;;;5059551;28;20596;-69
2023/09/07 00:03:04;;;;;;;7.95;3.25;;;;;;;;;;5058891;28;21361;-68
2023/09/07 00:05:33;;;;;;;5.45;2.95;;;;;;;;;;5059237;28;20032;-68
2023/09/07 00:07:59;;;;;;;6.18;3.05;;;;;;;;;;5057579;28;20084;-69
2023/09/07 00:10:26;;;;;;;6.38;3.15;;;;;;;;;;5059198;28;20028;-69
2023/09/07 00:12:52;;;;;;;7.63;3.47;;;;;;;;;;5058883;28;21270;-69
2023/09/07 00:15:20;;;;;;;6.32;3.40;;;;;;;;;;5051788;28;20421;-69
2023/09/07 00:17:46;;;;;;;6.05;2.70;;;;;;;;;;5054029;28;20119;-69
2023/09/07 00:20:13;;;;;;;8.00;3.03;;;;;;;;;;5054747;28;20125;-70
2023/09/07 00:22:40;;;;;;;5.43;3.15;;;;;;;;;;5053096;28;21715;-69
2023/09/07 00:25:06;;;;;;;6.80;3.20;;;;;;;;;;5053769;28;20027;-69
2023/09/07 00:27:33;;;;;;;5.82;3.38;;;;;;;;;;5052770;28;20031;-69
2023/09/07 00:29:59;;;;;;;7.13;3.58;;;;;;;;;;5054635;28;20076;-68
2023/09/07 00:32:25;;;;;;;5.82;3.58;;;;;;;;;;5052633;28;20032;-69
2023/09/07 00:34:51;;;;;;;5.72;2.83;;;;;;;;;;5055597;28;20032;-69
2023/09/07 00:37:17;;;;;;;6.30;3.40;;;;;;;;;;5055473;28;20035;-69
2023/09/07 00:39:43;;;;;;;7.47;3.30;;;;;;;;;;5055955;28;21328;-69
2023/09/07 00:42:09;;;;;;;8.50;3.53;;;;;;;;;;5055652;28;20101;-68
2023/09/07 00:44:35;;;;;;;6.25;3.60;;;;;;;;;;5056433;28;20090;-69
2023/09/07 00:47:02;;;;;;;9.50;3.20;;;;;;;;;;5055525;28;20888;-69
2023/09/07 00:49:28;;;;;;;6.78;3.45;;;;;;;;;;5055836;28;20030;-69
2023/09/07 00:51:54;;;;;;;5.60;3.28;;;;;;;;;;5055810;28;21851;-69
2023/09/07 00:54:20;;;;;;;7.15;3.28;;;;;;;;;;5055039;28;20094;-69
2023/09/07 00:56:47;;;;;;;5.43;3.05;;;;;;;;;;5055911;28;20039;-69
2023/09/07 00:59:13;;;;;;;6.70;3.53;;;;;;;;;;5054446;28;20032;-68
2023/09/07 01:01:40;;;;;;;7.60;3.17;;;;;;;;;;5055431;28;20094;-69
2023/09/07 01:04:06;;;;;;;4.90;2.95;;;;;;;;;;5055034;28;20039;-69
2023/09/07 01:06:40;;;;;;;9.15;3.03;;;;;;;;;;5055389;28;20062;-69
2023/09/07 01:09:10;;;;;;;7.07;3.03;;;;;;;;;;5056484;28;20027;-69
2023/09/07 01:11:39;;;;;;;5.50;3.25;;;;;;;;;;5057444;28;20024;-68
2023/09/07 01:14:06;;;;;;;5.65;3.13;;;;;;;;;;5053528;28;20036;-68
2023/09/07 01:16:38;;;;;;;7.47;2.88;;;;;;;;;;5057298;28;20905;-69
2023/09/07 01:19:05;;;;;;;7.70;3.30;;;;;;;;;;5058378;28;20074;-69
2023/09/07 01:21:35;;;;;;;6.88;2.83;;;;;;;;;;5056194;28;20024;-69
2023/09/07 01:24:02;;;;;;;5.18;3.00;;;;;;;;;;5058769;28;20043;-69
2023/09/07 01:26:28;;;;;;;6.38;3.45;;;;;;;;;;5058030;28;20067;-69
2023/09/07 01:28:54;;;;;;;6.78;3.20;;;;;;;;;;5058695;28;20048;-69
2023/09/07 01:31:20;;;;;;;7.85;3.50;;;;;;;;;;5058836;28;20680;-69
2023/09/07 01:33:46;;;;;;;8.35;3.53;;;;;;;;;;5058526;28;20043;-69
2023/09/07 01:36:12;;;;;;;5.70;3.13;;;;;;;;;;5058918;28;20032;-69
2023/09/07 01:38:38;;;;;;;8.38;3.33;;;;;;;;;;5057798;28;20390;-69
2023/09/07 01:41:04;;;;;;;7.15;3.42;;;;;;;;;;5058457;28;20453;-69
2023/09/07 01:43:30;;;;;;;7.53;3.37;;;;;;;;;;5057840;28;20039;-69
2023/09/07 01:45:56;;;;;;;6.53;3.40;;;;;;;;;;5057304;28;20052;-69
2023/09/07 01:48:25;;;;;;;7.05;3.10;;;;;;;;;;5054884;28;20028;-69
2023/09/07 01:50:54;;;;;;;5.30;3.28;;;;;;;;;;5057341;28;20042;-69
2023/09/07 01:53:20;;;;;;;6.70;3.50;;;;;;;;;;5055512;28;20028;-69
2023/09/07 01:55:47;;;;;;;6.15;3.90;;;;;;;;;;5057044;28;20027;-69
2023/09/07 01:58:13;;;;;;;6.75;3.83;;;;;;;;;;5057477;28;20067;-69
2023/09/07 02:00:40;;;;;;;6.43;3.38;;;;;;;;;;5057751;28;20123;-69
2023/09/07 02:03:06;;;;;;;7.07;3.50;;;;;;;;;;5057520;28;20028;-69
2023/09/07 02:05:32;;;;;;;8.63;4.10;;;;;;;;;;5057638;28;20078;-69
2023/09/07 02:07:59;;;;;;;8.40;3.20;;;;;;;;;;5057774;28;20028;-69
2023/09/07 02:10:25;;;;;;;8.80;3.30;;;;;;;;;;5057135;28;20065;-69
2023/09/07 02:12:51;;;;;;;7.38;3.60;;;;;;;;;;5056354;28;20049;-69
2023/09/07 02:15:17;;;;;;;5.95;3.58;;;;;;;;;;5056352;28;20078;-69
2023/09/07 02:17:46;;;;;;;11.75;3.95;;;;;;;;;;5057267;28;20040;-69
2023/09/07 02:20:13;;;;;;;6.13;3.70;;;;;;;;;;5056998;28;20474;-69
2023/09/07 02:22:39;;;;;;;6.47;3.42;;;;;;;;;;5074087;28;20032;-69
2023/09/07 02:25:06;;;;;;;6.10;3.47;;;;;;;;;;5056277;28;20037;-69
2023/09/07 02:27:34;;;;;;;7.80;3.10;;;;;;;;;;5056674;28;20153;-69
2023/09/07 02:30:01;;;;;;;5.85;3.42;;;;;;;;;;5055572;28;20050;-69
2023/09/07 02:32:27;;;;;;;7.13;3.90;;;;;;;;;;5055911;28;20039;-69
2023/09/07 02:34:54;;;;;;;6.30;3.72;;;;;;;;;;5056395;28;20032;-69
2023/09/07 02:37:20;;;;;;;5.70;3.13;;;;;;;;;;5056472;28;20748;-69
2023/09/07 02:39:46;;;;;;;7.45;3.15;;;;;;;;;;5054846;28;20024;-69
2023/09/07 02:42:12;;;;;;;7.47;3.70;;;;;;;;;;5057521;28;20287;-68
2023/09/07 02:44:39;;;;;;;8.25;3.92;;;;;;;;;;5056784;28;20723;-69
2023/09/07 02:47:05;;;;;;;12.10;3.85;;;;;;;;;;5056327;28;20062;-69
2023/09/07 02:49:31;;;;;;;9.15;4.40;;;;;;;;;;5056364;28;20032;-69
2023/09/07 02:51:57;;;;;;;8.05;3.97;;;;;;;;;;5056409;28;20074;-69
2023/09/07 02:54:23;;;;;;;10.38;3.90;;;;;;;;;;5057142;28;20055;-69
2023/09/07 02:56:50;;;;;;;6.38;3.38;;;;;;;;;;5057605;28;20032;-69
2023/09/07 02:59:16;;;;;;;8.55;4.10;;;;;;;;;;5057649;28;20035;-69
2023/09/07 03:01:42;;;;;;;7.60;3.50;;;;;;;;;;5055229;28;20735;-69
2023/09/07 03:04:08;;;;;;;6.78;3.45;;;;;;;;;;5056969;28;20047;-69
2023/09/07 03:06:34;;;;;;;10.77;4.22;;;;;;;;;;5057639;28;20036;-69
2023/09/07 03:09:00;;;;;;;8.80;4.28;;;;;;;;;;5056971;28;20020;-69
2023/09/07 03:11:26;;;;;;;13.23;4.25;;;;;;;;;;5056802;28;20195;-69
2023/09/07 03:13:52;;;;;;;9.23;4.20;;;;;;;;;;5056704;28;20407;-69
2023/09/07 03:16:18;;;;;;;9.07;3.90;;;;;;;;;;5056658;28;21052;-69
2023/09/07 03:18:44;;;;;;;10.20;4.25;;;;;;;;;;5056257;28;20107;-69
2023/09/07 03:21:10;;;;;;;7.00;4.35;;;;;;;;;;5055927;28;20077;-69
2023/09/07 03:23:36;;;;;;;7.70;4.82;;;;;;;;;;5056326;28;20043;-69
2023/09/07 03:26:02;;;;;;;7.03;4.10;;;;;;;;;;5056966;28;20135;-69
2023/09/07 03:28:29;;;;;;;9.43;4.25;;;;;;;;;;5056801;28;20059;-69
2023/09/07 03:30:55;;;;;;;9.77;4.00;;;;;;;;;;5056550;28;20036;-69
2023/09/07 03:33:22;;;;;;;7.65;4.47;;;;;;;;;;5056914;28;20602;-69
2023/09/07 03:35:48;;;;;;;10.57;4.63;;;;;;;;;;5056689;28;20491;-68
2023/09/07 03:38:14;;;;;;;7.75;4.07;;;;;;;;;;5057137;28;20406;-68
2023/09/07 03:40:40;;;;;;;7.97;4.35;;;;;;;;;;5055945;28;20674;-69
2023/09/07 03:43:06;;;;;;;8.07;4.30;;;;;;;;;;5056500;28;20036;-69
2023/09/07 03:45:32;;;;;;;9.30;4.30;;;;;;;;;;5056327;28;20040;-69
2023/09/07 03:47:59;;;;;;;8.48;4.55;;;;;;;;;;5054319;28;20035;-69
2023/09/07 03:50:25;;;;;;;6.80;4.30;;;;;;;;;;5058433;28;20597;-69
2023/09/07 03:52:51;;;;;;;7.90;4.10;;;;;;;;;;5059416;28;20058;-69
2023/09/07 03:55:17;;;;;;;8.85;4.80;;;;;;;;;;5058885;28;20036;-69
2023/09/07 03:57:43;;;;;;;7.28;3.88;;;;;;;;;;5060206;28;20059;-69
2023/09/07 04:00:09;;;;;;;8.25;4.28;;;;;;;;;;5060011;28;20133;-69
2023/09/07 04:02:35;;;;;;;9.10;4.47;;;;;;;;;;5059503;28;20063;-69
2023/09/07 04:05:04;;;;;;;9.60;4.88;;;;;;;;;;5059053;28;20028;-69
2023/09/07 04:07:30;;;;;;;8.30;4.40;;;;;;;;;;5057808;28;20064;-69
2023/09/07 04:09:56;;;;;;;5.82;4.10;;;;;;;;;;5057551;28;20032;-69
2023/09/07 04:12:23;;;;;;;10.93;4.68;;;;;;;;;;5059615;28;20032;-69
2023/09/07 04:14:49;;;;;;;7.80;4.07;;;;;;;;;;5059280;28;20040;-69
2023/09/07 04:17:15;;;;;;;6.72;4.07;;;;;;;;;;5059923;28;20966;-69
2023/09/07 04:19:41;;;;;;;6.22;4.20;;;;;;;;;;5059202;28;20846;-69
2023/09/07 04:22:07;;;;;;;8.57;4.85;;;;;;;;;;5059278;28;20131;-69
2023/09/07 04:24:35;;;;;;;6.68;3.95;;;;;;;;;;5058788;28;20044;-69
2023/09/07 04:27:02;;;;;;;7.65;4.40;;;;;;;;;;5060299;28;20839;-69
2023/09/07 04:29:28;;;;;;;7.47;4.30;;;;;;;;;;5059190;28;20048;-69
2023/09/07 04:31:55;;;;;;;11.35;4.45;;;;;;;;;;5059933;28;20051;-69
2023/09/07 04:34:21;;;;;;;7.30;4.82;;;;;;;;;;5058862;28;20093;-69
2023/09/07 04:36:47;;;;;;;7.80;4.47;;;;;;;;;;5056100;28;20093;-69
2023/09/07 04:39:17;;;;;;;6.20;4.30;;;;;;;;;;5057171;28;20046;-69
2023/09/07 04:41:43;;;;;;;7.22;4.57;;;;;;;;;;5056397;28;20506;-69
2023/09/07 04:44:09;;;;;;;9.30;4.95;;;;;;;;;;5057669;28;20197;-69
2023/09/07 04:46:35;;;;;;;9.20;4.75;;;;;;;;;;5056352;28;20028;-69
2023/09/07 04:49:01;;;;;;;8.85;4.90;;;;;;;;;;5057008;28;20036;-69
2023/09/07 04:51:27;;;;;;;8.88;4.75;;;;;;;;;;5057498;28;21863;-69
2023/09/07 04:53:53;;;;;;;10.23;4.85;;;;;;;;;;5058886;28;20032;-69
2023/09/07 04:56:21;;;;;;;8.27;4.18;;;;;;;;;;5058506;28;20035;-69
2023/09/07 04:58:47;;;;;;;8.27;4.93;;;;;;;;;;5057616;28;20111;-69
2023/09/07 05:01:13;;;;;;;9.35;4.53;;;;;;;;;;5057607;28;20059;-69
2023/09/07 05:03:43;;;;;;;7.80;4.72;;;;;;;;;;5057104;28;20036;-69
2023/09/07 05:06:09;;;;;;;10.68;5.07;;;;;;;;;;5057827;28;20102;-69
2023/09/07 05:08:35;;;;;;;7.80;5.45;;;;;;;;;;5058136;28;20032;-69
2023/09/07 05:11:04;;;;;;;10.48;5.30;;;;;;;;;;5056161;28;20024;-68
2023/09/07 05:13:31;;;;;;;8.35;4.45;;;;;;;;;;5056415;28;20024;-69
2023/09/07 05:16:00;;;;;;;8.55;5.57;;;;;;;;;;5058332;28;20046;-69
2023/09/07 05:18:26;;;;;;;11.07;5.07;;;;;;;;;;5058007;28;20035;-69
2023/09/07 05:20:53;;;;;;;8.80;4.95;;;;;;;;;;5057900;28;21010;-69
2023/09/07 05:23:19;;;;;;;9.98;4.78;;;;;;;;;;5057542;28;20736;-69
2023/09/07 05:25:45;;;;;;;8.02;5.45;;;;;;;;;;5057137;28;20036;-68
2023/09/07 05:28:13;;;;;;;11.85;6.07;;;;;;;;;;5057604;28;20028;-70
2023/09/07 05:30:39;;;;;;;8.13;5.22;;;;;;;;;;5057929;28;20058;-69
2023/09/07 05:33:05;;;;;;;7.93;4.80;;;;;;;;;;5058563;28;20585;-69
2023/09/07 05:35:32;;;;;;;9.77;4.90;;;;;;;;;;5058343;28;20046;-69
2023/09/07 05:37:58;;;;;;;12.40;5.72;;;;;;;;;;5058020;28;20062;-70
2023/09/07 05:40:25;;;;;;;9.00;4.57;;;;;;;;;;5058172;28;20032;-69
2023/09/07 05:42:51;;;;;;;9.48;5.03;;;;;;;;;;5058426;28;20074;-70
2023/09/07 05:45:17;;;;;;;8.43;5.00;;;;;;;;;;5057715;28;20133;-70
2023/09/07 05:47:43;;;;;;;6.47;4.68;;;;;;;;;;5057382;28;20036;-69
2023/09/07 05:50:09;;;;;;;8.45;5.47;;;;;;;;;;5057721;28;20025;-70
2023/09/07 05:52:35;;;;;;;10.88;4.78;;;;;;;;;;5057361;28;20031;-70
2023/09/07 05:55:03;;;;;;;9.88;5.70;;;;;;;;;;5057106;28;20031;-70
2023/09/07 05:57:29;;;;;;;6.57;4.63;;;;;;;;;;5057203;28;20039;-70
2023/09/07 05:59:56;;;;;;;8.90;5.50;;;;;;;;;;5057705;28;21090;-70
2023/09/07 06:02:22;;;;;;;7.18;4.85;;;;;;;;;;5057025;28;20076;-70
2023/09/07 06:04:48;;;;;;;12.57;5.25;;;;;;;;;;5057377;28;20060;-69
2023/09/07 06:07:14;;;;;;;7.63;5.35;;;;;;;;;;5057041;28;20043;-69
2023/09/07 06:09:40;;;;;;;8.07;5.60;;;;;;;;;;5057171;28;20035;-69
2023/09/07 06:12:06;;;;;;;12.00;5.30;;;;;;;;;;5054508;28;20028;-70
2023/09/07 06:14:32;;;;;;;9.73;5.00;;;;;;;;;;5057273;28;21005;-69
2023/09/07 06:16:58;;;;;;;8.10;4.78;;;;;;;;;;5056642;28;20386;-69
2023/09/07 06:19:24;;;;;;;8.70;5.38;;;;;;;;;;5056228;28;20038;-69
2023/09/07 06:21:51;;;;;;;7.72;5.10;;;;;;;;;;5056869;28;20032;-69
2023/09/07 06:24:17;;;;;;;10.93;5.70;;;;;;;;;;5057033;28;20041;-69
2023/09/07 06:26:44;;;;;;;8.15;4.88;;;;;;;;;;5058145;28;21041;-70
2023/09/07 06:29:10;;;;;;;9.48;4.80;;;;;;;;;;5055257;28;20166;-70
2023/09/07 06:31:36;;;;;;;7.50;4.85;;;;;;;;;;5052292;28;20033;-70
2023/09/07 06:34:02;;;;;;;8.63;5.63;;;;;;;;;;5053511;28;20036;-69
2023/09/07 06:36:30;;;;;;;14.57;6.00;;;;;;;;;;5058158;28;20470;-69
2023/09/07 06:38:56;;;;;;;9.98;5.53;;;;;;;;;;5058024;28;20039;-69
2023/09/07 06:41:23;;;;;;;10.05;5.30;;;;;;;;;;5057343;28;20618;-69
2023/09/07 06:43:49;;;;;;;8.13;4.90;;;;;;;;;;5060015;28;20386;-70
2023/09/07 06:46:15;;;;;;;9.50;4.88;;;;;;;;;;5060242;28;21649;-70
2023/09/07 06:48:41;;;;;;;8.23;5.00;;;;;;;;;;5059424;28;20075;-70
2023/09/07 06:51:09;;;;;;;8.63;5.20;;;;;;;;;;5062175;28;20032;-69
2023/09/07 06:53:35;;;;;;;9.45;4.88;;;;;;;;;;5061499;28;20058;-69
2023/09/07 06:56:02;;;;;;;11.57;4.78;;;;;;;;;;5061582;28;20040;-69
2023/09/07 06:58:28;;;;;;;7.15;4.57;;;;;;;;;;5063097;28;20037;-69
2023/09/07 07:00:58;;;;;;;8.82;4.80;;;;;;;;;;5063139;28;20060;-69
2023/09/07 07:03:27;;;;;;;9.40;5.07;;;;;;;;;;5060226;28;20032;-69
2023/09/07 07:05:53;;;;;;;8.90;4.97;;;;;;;;;;5063256;28;20035;-69
2023/09/07 07:08:19;;;;;;;9.43;4.80;;;;;;;;;;5062856;28;21184;-69
2023/09/07 07:10:45;;;;;;;7.93;4.47;;;;;;;;;;5062429;28;20087;-70
2023/09/07 07:13:11;;;;;;;9.65;5.45;;;;;;;;;;5063178;28;20028;-69
2023/09/07 07:15:37;;;;;;;10.18;4.63;;;;;;;;;;5061985;28;20040;-70
2023/09/07 07:18:08;;;;;;;8.15;4.80;;;;;;;;;;5063184;28;20044;-70
2023/09/07 07:20:34;;;;;;;8.85;4.55;;;;;;;;;;5063158;28;20944;-70
2023/09/07 07:23:00;;;;;;;8.32;4.45;;;;;;;;;;5063283;28;20848;-69
2023/09/07 07:25:26;;;;;;;8.60;4.63;;;;;;;;;;5064938;28;20033;-69
2023/09/07 07:27:52;;;;;;;6.80;4.47;;;;;;;;;;5066184;28;20036;-70
2023/09/07 07:30:18;;;;;;;8.10;4.40;;;;;;;;;;5066415;28;20720;-70
2023/09/07 07:32:44;;;;;;;9.55;4.70;;;;;;;;;;5066736;28;20805;-69
2023/09/07 07:35:11;;;;;;;9.05;4.60;;;;;;;;;;5066247;28;20047;-69
2023/09/07 07:37:37;;;;;;;8.55;4.43;;;;;;;;;;5066402;28;20119;-70
2023/09/07 07:40:04;;;;;;;10.38;4.40;;;;;;;;;;5066654;28;20028;-69
2023/09/07 07:42:30;;;;;;;6.45;4.13;;;;;;;;;;5066652;28;20046;-69
2023/09/07 07:44:56;;;;;;;6.55;3.75;;;;;;;;;;5066253;28;20174;-69
2023/09/07 07:47:22;;;;;;;9.30;4.55;;;;;;;;;;5066303;28;20139;-69
2023/09/07 07:49:48;;;;;;;8.60;4.20;;;;;;;;;;5066289;28;20032;-69
2023/09/07 07:52:14;;;;;;;7.00;3.90;;;;;;;;;;5066094;28;20753;-69
2023/09/07 07:54:40;;;;;;;8.90;4.40;;;;;;;;;;5065877;28;20863;-70
2023/09/07 07:57:06;;;;;;;6.57;4.03;;;;;;;;;;5066389;28;20032;-70
2023/09/07 07:59:35;;;;;;;7.53;4.13;;;;;;;;;;5066359;28;20091;-69
2023/09/07 08:02:01;;;;;;;10.20;4.13;;;;;;;;;;5066358;28;20074;-69
2023/09/07 08:04:27;;;;;;;10.02;5.07;;;;;;;;;;5066166;28;20091;-69
2023/09/07 08:06:58;;;;;;;8.02;3.95;;;;;;;;;;5066076;28;20040;-69
2023/09/07 08:09:24;;;;;;;9.57;4.47;;;;;;;;;;5066132;28;20032;-69
2023/09/07 08:11:51;;;;;;;9.98;4.43;;;;;;;;;;5066002;28;20024;-69
2023/09/07 08:14:17;;;;;;;8.68;4.30;;;;;;;;;;5066287;28;21160;-69
2023/09/07 08:16:43;;;;;;;8.30;4.32;;;;;;;;;;5066209;28;20093;-69
2023/09/07 08:19:09;;;;;;;7.07;4.35;;;;;;;;;;5065688;28;20131;-69
2023/09/07 08:21:37;;;;;;;9.80;4.57;;;;;;;;;;5062839;28;20119;-69
2023/09/07 08:24:03;;;;;;;7.88;5.03;;;;;;;;;;5063209;28;20032;-69
2023/09/07 08:26:30;;;;;;;7.75;5.20;;;;;;;;;;5065046;28;20183;-69
2023/09/07 08:28:56;;;;;;;7.95;4.97;;;;;;;;;;5065311;28;20127;-69
2023/09/07 08:31:22;;;;;;;8.65;4.70;;;;;;;;;;5065667;28;20370;-69
2023/09/07 08:33:51;;;;;;;7.03;4.57;;;;;;;;;;5065353;28;20120;-69
2023/09/07 08:36:17;;;;;;;11.38;4.93;;;;;;;;;;5065284;28;20082;-69
2023/09/07 08:38:44;;;;;;;10.10;4.90;;;;;;;;;;5065340;28;20032;-69
2023/09/07 08:41:10;;;;;;;8.82;4.88;;;;;;;;;;5065418;28;20024;-69
2023/09/07 08:43:40;;;;;;;8.77;4.50;;;;;;;;;;5062059;28;20028;-69
2023/09/07 08:46:14;;;;;;;8.00;4.55;;;;;;;;;;5064360;28;20520;-69
2023/09/07 08:48:42;;;;;;;7.35;4.40;;;;;;;;;;5064354;28;20093;-69
2023/09/07 08:51:11;;;;;;;11.15;4.88;;;;;;;;;;5064778;28;20407;-69
2023/09/07 08:53:38;;;;;;;7.55;4.18;;;;;;;;;;5064082;28;20702;-69
2023/09/07 08:56:04;;;;;;;9.40;4.53;;;;;;;;;;5064822;28;20035;-70
2023/09/07 08:58:31;;;;;;;7.85;4.80;;;;;;;;;;5064507;28;20024;-69
2023/09/07 09:00:58;;;;;;;7.10;4.82;;;;;;;;;;5063960;28;20047;-69
2023/09/07 09:03:24;;;;;;;9.45;4.60;;;;;;;;;;5062977;28;20982;-69
2023/09/07 09:05:52;;;;;;;8.65;4.50;;;;;;;;;;5055745;28;20039;-69
2023/09/07 09:08:20;;;;;;;7.35;4.13;;;;;;;;;;5063931;28;20115;-69
2023/09/07 09:10:46;;;;;;;8.52;3.85;;;;;;;;;;5064589;28;20103;-69
2023/09/07 09:13:13;;;;;;;15.65;4.30;;;;;;;;;;5064170;28;20107;-69
2023/09/07 09:15:39;;;;;;;7.72;3.92;;;;;;;;;;5064848;28;20032;-69
2023/09/07 09:18:12;;;;;;;7.45;3.75;;;;;;;;;;5065210;28;20038;-69
2023/09/07 09:20:39;;;;;;;;;;;;;;;;;;5065167;28;20536;-69
2023/09/07 09:23:07;;;;;;;9.40;4.13;;;;;;;;;;5064890;28;19950;-69
2023/09/07 09:25:33;;;;;;;8.43;4.20;;;;;;;;;;5065101;28;20040;-69
2023/09/07 09:27:59;;;;;;;7.65;3.65;;;;;;;;;;5064634;28;20620;-69
2023/09/07 09:30:25;;;;;;;7.30;3.88;;;;;;;;;;5065109;28;20062;-69
2023/09/07 09:32:51;;;;;;;8.20;3.85;;;;;;;;;;5064927;28;20071;-69
2023/09/07 09:35:18;;;;;;;8.52;4.28;;;;;;;;;;5064679;28;20035;-69
2023/09/07 09:37:51;;;;;;;9.90;3.78;;;;;;;;;;5064844;28;20032;-70
2023/09/07 09:40:17;;;;;;;8.20;3.75;;;;;;;;;;5064697;28;20191;-69
2023/09/07 09:42:43;;;;;;;9.35;3.33;;;;;;;;;;5064605;28;21764;-69
2023/09/07 09:45:10;;;;;;;8.57;3.63;;;;;;;;;;5064287;28;20043;-69
2023/09/07 09:47:40;;;;;;;10.60;3.70;;;;;;;;;;5063942;28;20032;-69
2023/09/07 09:50:07;;;;;;;7.22;3.92;;;;;;;;;;5064184;28;20040;-69
2023/09/07 09:52:35;;;;;;;6.22;3.58;;;;;;;;;;5064247;28;20078;-69
2023/09/07 09:55:02;;;;;;;7.35;4.05;;;;;;;;;;5064165;28;20078;-69
2023/09/07 09:57:28;;;;;;;7.07;3.67;;;;;;;;;;5062145;28;20052;-69
2023/09/07 09:59:55;;;;;;;8.32;3.90;;;;;;;;;;5064051;28;20028;-69
2023/09/07 10:02:22;;;;;;;14.32;3.92;;;;;;;;;;5064028;28;20146;-69
2023/09/07 10:04:48;;;;;;;6.82;3.80;;;;;;;;;;5063734;28;20073;-69
2023/09/07 10:07:14;;;;;;;5.82;3.60;;;;;;;;;;5064339;28;20043;-69
2023/09/07 10:09:40;;;;;;;7.95;4.22;;;;;;;;;;5063936;28;20036;-69
2023/09/07 10:12:11;;;;;;;9.10;3.92;;;;;;;;;;5064262;28;20038;-69
2023/09/07 10:14:41;;;;;;;7.45;4.05;;;;;;;;;;5063903;28;20036;-69
2023/09/07 10:17:09;;;;;;;7.07;4.20;;;;;;;;;;5064243;28;20119;-69
2023/09/07 10:19:44;;;;;;;8.88;5.00;;;;;;;;;;5063774;28;21073;-69
2023/09/07 10:22:21;;;;;;;5.63;3.50;;;;;;;;;;5063432;28;20036;-69
2023/09/07 10:24:57;;;;;;;8.30;4.15;;;;;;;;;;5063443;28;20201;-70
2023/09/07 10:27:23;;;;;;;8.13;4.82;;;;;;;;;;5062068;28;20035;-69
2023/09/07 10:29:52;;;;;;;7.43;3.97;;;;;;;;;;5063659;28;20040;-69
2023/09/07 10:32:18;;;;;;;8.43;3.60;;;;;;;;;;5063896;28;20031;-69
2023/09/07 10:34:45;;;;;;;8.93;4.22;;;;;;;;;;5062359;28;20139;-69
2023/09/07 10:37:13;;;;;;;6.57;4.03;;;;;;;;;;5064115;28;20146;-69
2023/09/07 10:39:40;;;;;;;9.93;4.18;;;;;;;;;;5063925;28;20395;-69
2023/09/07 10:42:06;;;;;;;7.13;3.90;;;;;;;;;;5063595;28;20033;-69
2023/09/07 10:44:32;;;;;;;7.75;4.13;;;;;;;;;;5063354;28;21764;-69
2023/09/07 10:46:58;;;;;;;7.32;4.35;;;;;;;;;;5063805;28;20032;-69
2023/09/07 10:49:24;;;;;;;7.55;3.78;;;;;;;;;;5063864;28;20039;-69
2023/09/07 10:51:53;;;;;;;8.35;4.03;;;;;;;;;;5063173;28;20028;-69
2023/09/07 10:54:23;;;;;;;6.78;3.53;;;;;;;;;;5063913;28;20070;-69
2023/09/07 10:56:50;;;;;;;8.98;3.90;;;;;;;;;;5063534;28;20059;-69
2023/09/07 10:59:17;;;;;;;7.22;3.97;;;;;;;;;;5066707;28;20037;-69
2023/09/07 11:01:48;;;;;;;9.27;4.55;;;;;;;;;;5066134;28;20040;-69
2023/09/07 11:04:14;;;;;;;6.88;4.13;;;;;;;;;;5065653;28;20301;-69
2023/09/07 11:06:41;;;;;;;7.57;3.70;;;;;;;;;;5065514;28;20330;-70
2023/09/07 11:09:10;;;;;;;7.00;3.75;;;;;;;;;;5064803;28;20028;-69
2023/09/07 11:11:41;;;;;;;9.10;4.40;;;;;;;;;;5065558;28;20066;-69
2023/09/07 11:14:08;;;;;;;8.52;4.28;;;;;;;;;;5065640;28;20024;-69
2023/09/07 11:16:34;;;;;;;9.93;3.95;;;;;;;;;;5064617;28;20032;-69
2023/09/07 11:19:08;;;;;;;9.35;3.83;;;;;;;;;;5066891;28;20105;-69
2023/09/07 11:21:37;;;;;;;8.23;3.92;;;;;;;;;;5066865;28;20067;-69
2023/09/07 11:24:06;;;;;;;7.82;3.95;;;;;;;;;;5066857;28;20027;-69
2023/09/07 11:26:45;;;;;;;7.57;3.55;;;;;;;;;;5066494;28;20040;-69
2023/09/07 11:29:15;;;;;;;6.20;3.80;;;;;;;;;;5066987;28;20036;-69
2023/09/07 11:31:42;;;;;;;7.25;3.58;;;;;;;;;;5066320;28;20044;-69
2023/09/07 11:34:12;;;;;;;7.68;3.30;;;;;;;;;;5065770;28;20078;-69
2023/09/07 11:36:38;;;;;;;9.85;3.85;;;;;;;;;;5067154;28;20042;-69
2023/09/07 11:39:12;;;;;;;7.47;3.50;;;;;;;;;;5066660;28;20028;-70
2023/09/07 11:41:42;;;;;;;8.23;3.50;;;;;;;;;;5066627;28;20036;-69
2023/09/07 11:44:08;;;;;;;6.47;3.20;;;;;;;;;;5066329;28;20071;-69
2023/09/07 11:46:35;;;;;;;5.50;3.08;;;;;;;;;;5066993;28;20039;-69
2023/09/07 11:49:01;;;;;;;7.97;3.28;;;;;;;;;;5066749;28;20029;-69
2023/09/07 11:51:27;;;;;;;8.45;3.08;;;;;;;;;;5066663;28;20024;-69
2023/09/07 11:53:53;;;;;;;7.57;3.35;;;;;;;;;;5066212;28;20118;-69
2023/09/07 11:56:19;;;;;;;8.35;3.50;;;;;;;;;;5066563;28;20028;-69
2023/09/07 11:58:45;;;;;;;6.10;3.70;;;;;;;;;;5066081;28;20040;-69
2023/09/07 12:01:11;;;;;;;8.32;3.45;;;;;;;;;;5066287;28;20044;-70
2023/09/07 12:03:37;;;;;;;8.25;3.33;;;;;;;;;;5066113;28;20042;-70
2023/09/07 12:06:03;;;;;;;7.32;3.30;;;;;;;;;;5066360;28;20032;-69
2023/09/07 12:08:29;;;;;;;7.18;3.70;;;;;;;;;;5066270;28;20031;-69
2023/09/07 12:10:55;;;;;;;7.00;3.05;;;;;;;;;;5064911;28;20028;-69
2023/09/07 12:13:22;;;;;;;10.27;3.60;;;;;;;;;;5065936;28;20045;-69
2023/09/07 12:15:48;;;;;;;8.25;2.90;;;;;;;;;;5064932;28;20895;-69
2023/09/07 12:18:14;;;;;;;9.23;3.17;;;;;;;;;;5065888;28;20045;-69
2023/09/07 12:20:40;;;;;;;7.72;2.92;;;;;;;;;;5065082;28;20115;-69
2023/09/07 12:23:06;;;;;;;6.80;3.60;;;;;;;;;;5065756;28;20121;-70
2023/09/07 12:25:32;;;;;;;6.88;3.17;;;;;;;;;;5065629;28;21764;-69
2023/09/07 12:27:58;;;;;;;6.57;3.10;;;;;;;;;;5064489;28;20967;-69
2023/09/07 12:30:24;;;;;;;6.80;3.53;;;;;;;;;;5066123;28;20037;-70
2023/09/07 12:32:51;;;;;;;7.55;2.67;;;;;;;;;;5066070;28;20605;-70
2023/09/07 12:35:17;;;;;;;6.75;2.72;;;;;;;;;;5065925;28;21307;-69
2023/09/07 12:37:43;;;;;;;7.63;3.30;;;;;;;;;;5066021;28;20032;-69
2023/09/07 12:40:13;;;;;;;6.57;3.00;;;;;;;;;;5082833;28;20024;-69
2023/09/07 12:42:40;;;;;;;5.65;2.85;;;;;;;;;;5064503;28;20063;-70
2023/09/07 12:45:07;;;;;;;6.95;3.47;;;;;;;;;;5064835;28;20037;-69
2023/09/07 12:47:33;;;;;;;5.20;3.10;;;;;;;;;;5064494;28;20858;-69
2023/09/07 12:49:59;;;;;;;7.75;3.15;;;;;;;;;;5065904;28;20036;-69
2023/09/07 12:52:25;;;;;;;6.75;3.10;;;;;;;;;;5065407;28;20032;-69
2023/09/07 12:54:51;;;;;;;8.63;3.35;;;;;;;;;;5065787;28;20130;-69
2023/09/07 12:57:17;;;;;;;5.07;2.55;;;;;;;;;;5065516;28;20107;-69
2023/09/07 12:59:43;;;;;;;5.82;3.47;;;;;;;;;;5065587;28;20064;-69
2023/09/07 13:02:09;;;;;;;5.90;3.28;;;;;;;;;;5065602;28;20121;-69
2023/09/07 13:04:35;;;;;;;7.28;3.42;;;;;;;;;;5065389;28;20047;-69
2023/09/07 13:07:02;;;;;;;6.28;3.25;;;;;;;;;;5064547;28;20031;-70
2023/09/07 13:09:28;;;;;;;8.13;3.58;;;;;;;;;;5064949;28;20036;-69
2023/09/07 13:11:54;;;;;;;6.25;3.33;;;;;;;;;;5062523;28;21820;-69
2023/09/07 13:14:20;;;;;;;5.93;3.30;;;;;;;;;;5063583;28;20038;-69
2023/09/07 13:16:46;;;;;;;7.57;3.20;;;;;;;;;;5063552;28;20595;-69
2023/09/07 13:19:12;;;;;;;7.28;3.55;;;;;;;;;;5063180;28;20047;-70
2023/09/07 13:21:38;;;;;;;7.60;3.75;;;;;;;;;;5063276;28;20033;-69
2023/09/07 13:24:04;;;;;;;6.85;3.88;;;;;;;;;;5063828;28;21652;-65
2023/09/07 13:26:31;;;;;;;7.40;3.28;;;;;;;;;;5063918;28;20063;-66
2023/09/07 13:28:57;;;;;;;7.75;3.63;;;;;;;;;;5064631;28;20039;-65
2023/09/07 13:31:23;;;;;;;8.40;4.28;;;;;;;;;;5061785;28;20703;-65
2023/09/07 13:33:50;;;;;;;7.75;3.75;;;;;;;;;;5064957;28;20059;-66
2023/09/07 13:36:17;;;;;;;7.72;3.58;;;;;;;;;;5065200;28;20028;-65
2023/09/07 13:38:43;;;;;;;5.18;2.85;;;;;;;;;;5063945;28;20040;-65
2023/09/07 13:41:09;;;;;;;5.72;3.15;;;;;;;;;;5064302;28;20035;-65
2023/09/07 13:43:35;;;;;;;6.85;3.20;;;;;;;;;;5064505;28;20075;-65
2023/09/07 13:46:02;;;;;;;9.80;4.38;;;;;;;;;;5064405;28;20145;-65
2023/09/07 13:48:29;;;;;;;8.07;3.55;;;;;;;;;;5064388;28;20039;-65
2023/09/07 13:50:56;;;;;;;9.57;3.60;;;;;;;;;;5063997;28;20036;-66
2023/09/07 13:53:22;;;;;;;11.32;3.55;;;;;;;;;;5064660;28;20032;-65
2023/09/07 13:55:48;;;;;;;6.63;3.53;;;;;;;;;;5064562;28;20040;-65
2023/09/07 13:58:14;;;;;;;8.95;3.60;;;;;;;;;;5062043;28;20047;-65
2023/09/07 14:00:41;;;;;;;9.23;3.40;;;;;;;;;;5064055;28;20041;-65
2023/09/07 14:03:07;;;;;;;8.23;3.40;;;;;;;;;;5063315;28;20743;-65
2023/09/07 14:05:33;;;;;;;8.20;3.53;;;;;;;;;;5063638;28;20036;-65
2023/09/07 14:07:59;;;;;;;5.97;3.58;;;;;;;;;;5063570;28;20024;-65
2023/09/07 14:10:25;;;;;;;10.25;3.67;;;;;;;;;;5063598;28;20073;-65
2023/09/07 14:12:51;;;;;;;6.53;3.53;;;;;;;;;;5061355;28;20028;-65
2023/09/07 14:15:17;;;;;;;8.00;4.07;;;;;;;;;;5063568;28;20032;-65
2023/09/07 14:17:43;;;;;;;12.10;3.40;;;;;;;;;;5063818;28;20118;-65
2023/09/07 14:20:09;;;;;;;8.48;3.42;;;;;;;;;;5063637;28;20074;-65
2023/09/07 14:22:35;;;;;;;6.18;2.90;;;;;;;;;;5063233;28;20028;-66
2023/09/07 14:25:02;;;;;;;7.68;3.47;;;;;;;;;;5063283;28;20728;-65
2023/09/07 14:27:28;;;;;;;6.10;3.35;;;;;;;;;;5062946;28;20058;-66
2023/09/07 14:29:54;;;;;;;11.55;3.72;;;;;;;;;;5061900;28;20043;-65
2023/09/07 14:32:20;;;;;;;8.05;3.63;;;;;;;;;;5062960;28;20056;-66
2023/09/07 14:34:46;;;;;;;7.07;3.97;;;;;;;;;;5063221;28;20036;-65
2023/09/07 14:37:15;;;;;;;6.85;4.15;;;;;;;;;;5063414;28;20036;-65
2023/09/07 14:39:47;;;;;;;7.88;3.55;;;;;;;;;;5063890;28;20069;-65